Atmore, Alabama
Current Conditions -  °F | °C
As of 10:56 PM on Sunday 21 Dec 2014 (Local Time) from KNSE Reporting Station
Overcast Overcast  
Wind Chill: 54°   Ceiling: 200
Heat Index: 54°   Visibility: 8mi
Dew Point: 53°   Wind: 6mph
Humidity: 97%   Direction: 100°E
Pressure: 29.99"   Gusts: NA
Location:  31.03°N, 87.49°W
Report Text: KNSE 220456Z AUTO 10005KT 8SM OVC002 12/12 A2999 RMK AO2 SLP145 T01220117 $
Loading
Personal Weather Stations






























Interactive Weather Map New forecast layout! Learn more

10-Day Weather Forecast

Advertisements
Track Severe Weather on mobile